Time;durP1;ratioP1;P1;durP2;ratioP2;P2;SDS_P1;SDS_P2;PMS_P1;PMS_P2;Temp;Humidity;BMP_temperature;BMP_pressure;BME280_temperature;BME280_humidity;BME280_pressure;Samples;Min_cycle;Max_cycle;Signal;HPM_P1;HPM_P2
2022/02/26 00:00:44;;;;;;;57.63;25.30;;;;;;;7.85;37.43;95281.56;4950429;29;20583;-65
2022/02/26 00:03:12;;;;;;;58.47;24.08;;;;;;;8.13;36.93;95278.25;4952669;29;20290;-65
2022/02/26 00:05:44;;;;;;;55.22;25.88;;;;;;;8.08;37.48;95280.75;4951645;29;20290;-67
2022/02/26 00:08:12;;;;;;;56.70;26.15;;;;;;;8.03;37.44;95284.03;4951547;29;20578;-66
2022/02/26 00:10:39;;;;;;;55.75;27.92;;;;;;;8.00;37.49;95273.28;4950851;29;20203;-67
2022/02/26 00:13:05;;;;;;;57.65;27.27;;;;;;;8.17;36.90;95289.81;4953564;29;20221;-65
2022/02/26 00:15:32;;;;;;;61.08;29.17;;;;;;;8.10;36.94;95242.19;4953792;29;20240;-66
2022/02/26 00:18:00;;;;;;;60.67;32.35;;;;;;;8.28;37.51;95275.97;4954238;29;20200;-67
2022/02/26 00:20:27;;;;;;;65.68;32.78;;;;;;;8.14;37.11;95269.38;4953346;29;20254;-64
2022/02/26 00:22:54;;;;;;;109.53;48.28;;;;;;;8.13;37.40;95254.75;4952504;29;20203;-64
2022/02/26 00:25:21;;;;;;;112.80;50.17;;;;;;;8.11;37.47;95268.03;4951265;29;20206;-66
2022/02/26 00:27:48;;;;;;;118.30;53.97;;;;;;;8.23;37.21;95273.22;4951388;29;20714;-66
2022/02/26 00:30:14;;;;;;;111.55;53.05;;;;;;;8.25;37.06;95281.63;4951339;29;20204;-66
2022/02/26 00:32:41;;;;;;;101.15;44.40;;;;;;;7.84;37.80;95263.53;4952925;29;20192;-66
2022/02/26 00:35:08;;;;;;;71.82;35.95;;;;;;;6.89;40.04;95286.38;4951585;29;20212;-66
2022/02/26 00:37:35;;;;;;;65.40;32.92;;;;;;;6.82;40.13;95274.47;4951265;29;20250;-66
2022/02/26 00:40:03;;;;;;;72.35;32.15;;;;;;;7.29;39.46;95296.19;4950912;29;20303;-65
2022/02/26 00:42:30;;;;;;;64.55;29.67;;;;;;;6.27;41.42;95291.22;4951650;29;20196;-67
2022/02/26 00:44:57;;;;;;;60.75;28.02;;;;;;;6.76;41.00;95285.78;4951039;29;20236;-66
2022/02/26 00:47:24;;;;;;;61.40;27.33;;;;;;;7.32;38.96;95285.34;4950998;29;20196;-64
2022/02/26 00:49:51;;;;;;;59.75;27.33;;;;;;;6.38;41.24;95287.88;4951009;28;20593;-67
2022/02/26 00:52:21;;;;;;;65.97;28.38;;;;;;;5.74;42.67;95288.38;4955866;29;20631;-65
2022/02/26 00:54:49;;;;;;;53.25;25.95;;;;;;;6.11;41.78;95272.59;4955010;29;20270;-66
2022/02/26 00:57:18;;;;;;;59.10;26.58;;;;;;;6.41;41.12;95264.81;4954560;29;20199;-65
2022/02/26 00:59:45;;;;;;;53.97;26.98;;;;;;;6.45;40.95;95278.97;4954456;29;20210;-66
2022/02/26 01:02:12;;;;;;;58.90;28.67;;;;;;;6.82;40.68;95274.47;4954327;29;20199;-65
2022/02/26 01:04:41;;;;;;;56.40;26.60;;;;;;;6.62;39.90;95259.13;4953974;29;20227;-65
2022/02/26 01:07:08;;;;;;;56.13;25.85;;;;;;;6.81;40.31;95278.88;4954081;29;20742;-65
2022/02/26 01:09:35;;;;;;;57.22;27.33;;;;;;;6.83;40.39;95276.84;4953886;29;20214;-66
2022/02/26 01:12:04;;;;;;;61.63;28.13;;;;;;;7.29;39.48;95281.34;4956923;29;20196;-66
2022/02/26 01:14:33;;;;;;;63.53;27.42;;;;;;;6.89;40.50;95288.19;4959279;29;20609;-64
2022/02/26 01:17:01;;;;;;;51.95;26.08;;;;;;;7.04;40.33;95284.13;4954915;29;20200;-65
2022/02/26 01:19:28;;;;;;;61.53;30.80;;;;;;;7.02;40.27;95286.19;4954286;29;20208;-66
2022/02/26 01:21:55;;;;;;;72.32;35.03;;;;;;;6.96;40.27;95294.91;4954163;29;20758;-66
2022/02/26 01:24:23;;;;;;;107.82;49.97;;;;;;;6.72;40.89;95280.22;4953639;29;20651;-68
2022/02/26 01:26:50;;;;;;;104.10;51.05;;;;;;;6.93;40.65;95279.69;4953120;29;20203;-66
2022/02/26 01:29:17;;;;;;;125.55;61.10;;;;;;;6.46;41.22;95280.56;4953148;29;20837;-64
2022/02/26 01:31:44;;;;;;;136.73;64.03;;;;;;;6.74;40.47;95275.56;4954373;29;20188;-67
2022/02/26 01:34:11;;;;;;;117.82;56.38;;;;;;;6.82;40.12;95275.28;4953596;29;20226;-65
2022/02/26 01:36:38;;;;;;;124.75;59.70;;;;;;;6.96;39.90;95263.63;4952617;29;20184;-66
2022/02/26 01:39:07;;;;;;;138.88;64.57;;;;;;;6.87;40.00;95271.97;4953479;29;20659;-65
2022/02/26 01:41:36;;;;;;;182.63;85.70;;;;;;;6.93;39.71;95277.09;4953789;29;20619;-66
2022/02/26 01:44:03;;;;;;;223.57;105.75;;;;;;;6.88;39.66;95276.16;4953495;29;20224;-65
2022/02/26 01:46:34;;;;;;;204.90;96.53;;;;;;;6.74;40.13;95290.41;4936666;29;20202;-66
2022/02/26 01:49:05;;;;;;;219.48;101.38;;;;;;;6.94;39.74;95285.69;4953130;29;20671;-65
2022/02/26 01:51:32;;;;;;;214.85;100.53;;;;;;;6.98;39.91;95287.66;4953553;29;20244;-67
2022/02/26 01:53:59;;;;;;;216.48;102.47;;;;;;;6.93;39.71;95291.94;4953068;29;20266;-66
2022/02/26 01:56:26;;;;;;;206.82;97.88;;;;;;;7.00;39.67;95293.44;4953870;29;20191;-65
2022/02/26 01:58:53;;;;;;;215.25;95.20;;;;;;;6.91;40.18;95293.97;4953440;29;20199;-65
2022/02/26 02:01:20;;;;;;;198.50;93.72;;;;;;;6.55;40.30;95268.81;4953028;28;20309;-65
2022/02/26 02:03:47;;;;;;;200.00;95.20;;;;;;;6.72;40.59;95290.63;4952700;29;20510;-68
2022/02/26 02:06:15;;;;;;;194.15;89.28;;;;;;;6.74;40.50;95298.22;4953477;29;20180;-65
2022/02/26 02:08:42;;;;;;;176.70;85.40;;;;;;;6.71;40.34;95294.25;4953080;29;20199;-64
2022/02/26 02:11:10;;;;;;;174.07;82.72;;;;;;;6.78;40.12;95288.94;4953542;29;20271;-65
2022/02/26 02:13:37;;;;;;;147.55;70.70;;;;;;;6.72;40.27;95289.81;4952656;29;20278;-66
2022/02/26 02:16:05;;;;;;;162.65;74.10;;;;;;;6.65;40.82;95295.13;4953160;29;20204;-66
2022/02/26 02:18:32;;;;;;;165.05;76.85;;;;;;;6.60;41.06;95302.81;4952377;29;20298;-66
2022/02/26 02:21:00;;;;;;;165.75;77.07;;;;;;;6.58;41.06;95307.44;4953174;29;20258;-67
2022/02/26 02:23:27;;;;;;;147.25;71.65;;;;;;;6.55;40.95;95300.06;4953215;29;20627;-65
2022/02/26 02:25:56;;;;;;;146.05;72.22;;;;;;;6.96;40.10;95286.28;4953044;29;20196;-65
2022/02/26 02:28:23;;;;;;;143.30;67.80;;;;;;;6.48;41.00;95298.59;4953286;29;20202;-64
2022/02/26 02:30:51;;;;;;;119.93;56.28;;;;;;;4.85;43.63;95317.28;4952962;29;20223;-65
2022/02/26 02:33:19;;;;;;;122.55;60.13;;;;;;;5.70;42.61;95310.63;4953304;29;20212;-66
2022/02/26 02:35:46;;;;;;;122.55;59.10;;;;;;;6.07;41.78;95301.88;4953219;29;20236;-67
2022/02/26 02:38:18;;;;;;;126.32;56.72;;;;;;;6.37;41.02;95318.31;4954530;29;20596;-64
2022/02/26 02:40:46;;;;;;;111.32;53.53;;;;;;;6.49;40.72;95320.97;4953134;29;20184;-65
2022/02/26 02:43:14;;;;;;;122.13;57.35;;;;;;;6.76;40.19;95312.63;4953262;29;20251;-66
2022/02/26 02:45:41;;;;;;;114.60;55.25;;;;;;;6.76;40.56;95317.81;4952252;29;20703;-66
2022/02/26 02:48:08;;;;;;;116.78;55.08;;;;;;;6.74;39.84;95319.84;4953240;29;20212;-66
2022/02/26 02:50:35;;;;;;;115.15;55.55;;;;;;;6.81;40.20;95325.75;4952216;29;20651;-63
2022/02/26 02:53:03;;;;;;;115.95;56.33;;;;;;;6.49;40.86;95327.00;4952844;29;20204;-66
2022/02/26 02:55:30;;;;;;;109.22;54.70;;;;;;;6.56;40.48;95325.09;4952036;29;20267;-65
2022/02/26 02:57:57;;;;;;;114.40;54.97;;;;;;;6.51;40.73;95314.56;4952498;29;20199;-65
2022/02/26 03:00:26;;;;;;;115.15;55.47;;;;;;;6.62;40.66;95321.63;4952119;29;20188;-66
2022/02/26 03:02:53;;;;;;;115.10;56.00;;;;;;;6.63;40.61;95323.19;4952651;29;20211;-67
2022/02/26 03:05:22;;;;;;;121.43;55.35;;;;;;;6.68;40.47;95315.50;4952202;29;20227;-65
2022/02/26 03:07:50;;;;;;;108.20;53.90;;;;;;;6.69;40.85;95326.72;4952657;29;20227;-65
2022/02/26 03:10:17;;;;;;;113.85;54.40;;;;;;;6.55;40.21;95320.88;4952325;29;20774;-66
2022/02/26 03:12:50;;;;;;;112.55;53.65;;;;;;;6.36;41.30;95321.94;4952547;28;20200;-66
2022/02/26 03:15:19;;;;;;;123.07;59.28;;;;;;;6.40;41.33;95325.72;4951359;29;20236;-65
2022/02/26 03:17:46;;;;;;;111.18;53.80;;;;;;;5.26;43.23;95336.78;4952443;29;20200;-65
2022/02/26 03:20:13;;;;;;;111.75;51.30;;;;;;;6.00;41.61;95312.31;4951488;29;20208;-64
2022/02/26 03:22:40;;;;;;;107.70;52.33;;;;;;;6.38;41.67;95345.94;4950988;29;20200;-65
2022/02/26 03:25:08;;;;;;;83.00;42.47;;;;;;;6.33;40.90;95343.22;4951675;29;20234;-66
2022/02/26 03:27:35;;;;;;;101.43;47.83;;;;;;;5.70;42.74;95352.22;4952218;29;20211;-66
2022/02/26 03:30:05;;;;;;;102.10;47.75;;;;;;;5.68;43.10;95362.03;4951901;29;20202;-66
2022/02/26 03:32:34;;;;;;;95.90;47.33;;;;;;;6.02;41.56;95330.34;4951943;29;20276;-66
2022/02/26 03:35:02;;;;;;;104.10;49.72;;;;;;;6.04;41.98;95354.31;4951477;29;20208;-66
2022/02/26 03:37:29;;;;;;;104.15;50.53;;;;;;;5.79;42.35;95359.53;4951547;29;20188;-65
2022/02/26 03:39:56;;;;;;;103.88;49.58;;;;;;;5.89;42.15;95366.88;4951310;29;20192;-65
2022/02/26 03:42:23;;;;;;;96.60;47.72;;;;;;;6.01;41.94;95365.16;4951770;29;20909;-66
2022/02/26 03:44:50;;;;;;;92.82;43.95;;;;;;;5.93;42.08;95365.44;4951079;29;20350;-68
2022/02/26 03:47:18;;;;;;;87.75;42.92;;;;;;;5.81;42.09;95364.53;4952003;29;20307;-65
2022/02/26 03:49:46;;;;;;;101.03;46.17;;;;;;;5.96;42.42;95367.63;4951406;29;20200;-65
2022/02/26 03:52:14;;;;;;;97.07;44.83;;;;;;;5.92;42.26;95367.25;4951750;29;20656;-63
2022/02/26 03:54:41;;;;;;;103.90;47.13;;;;;;;6.18;41.94;95354.97;4951198;29;20200;-66
2022/02/26 03:57:08;;;;;;;99.07;48.60;;;;;;;6.33;41.29;95353.63;4951222;29;20210;-65
2022/02/26 03:59:35;;;;;;;107.00;50.05;;;;;;;5.97;41.56;95357.00;4951233;29;20211;-66
2022/02/26 04:02:03;;;;;;;105.18;48.17;;;;;;;6.01;41.52;95359.94;4951404;29;20659;-65
2022/02/26 04:04:35;;;;;;;97.75;47.53;;;;;;;6.08;41.82;95360.69;4950159;29;20956;-65
2022/02/26 04:07:04;;;;;;;101.05;46.78;;;;;;;6.00;41.68;95333.13;4935145;29;20247;-65
2022/02/26 04:09:31;;;;;;;93.68;47.50;;;;;;;6.05;42.07;95350.72;4954833;29;20188;-66
2022/02/26 04:11:58;;;;;;;104.65;49.78;;;;;;;6.05;41.77;95367.13;4951199;29;20311;-65
2022/02/26 04:14:25;;;;;;;108.53;51.13;;;;;;;6.05;42.05;95376.72;4950975;29;20236;-65
2022/02/26 04:16:53;;;;;;;100.45;47.67;;;;;;;6.10;42.05;95374.25;4951352;29;20243;-64
2022/02/26 04:19:20;;;;;;;96.55;48.20;;;;;;;6.09;41.72;95375.28;4950430;29;20687;-66
2022/02/26 04:21:48;;;;;;;101.65;48.30;;;;;;;6.14;41.61;95370.22;4951218;29;20262;-66
2022/02/26 04:24:15;;;;;;;98.93;47.67;;;;;;;6.21;41.60;95376.16;4951166;28;20195;-66
2022/02/26 04:26:44;;;;;;;91.65;47.50;;;;;;;6.06;42.05;95383.50;4954366;29;20203;-64
2022/02/26 04:29:11;;;;;;;93.15;46.88;;;;;;;6.03;41.89;95386.53;4954613;29;20219;-66
2022/02/26 04:31:39;;;;;;;92.63;45.78;;;;;;;6.10;41.70;95389.88;4957093;29;20211;-66
2022/02/26 04:34:05;;;;;;;89.72;42.88;;;;;;;5.98;41.44;95396.81;4955026;29;20196;-66
2022/02/26 04:36:33;;;;;;;78.35;41.08;;;;;;;6.08;41.00;95403.09;4954914;29;20191;-64
2022/02/26 04:38:59;;;;;;;83.10;41.15;;;;;;;6.32;40.54;95395.44;4954620;29;20176;-64
2022/02/26 04:41:26;;;;;;;80.13;38.92;;;;;;;6.24;40.64;95390.56;4954937;29;20199;-66
2022/02/26 04:43:54;;;;;;;83.35;40.60;;;;;;;6.05;41.04;95392.34;4954308;29;20202;-65
2022/02/26 04:46:21;;;;;;;86.45;41.97;;;;;;;6.13;41.04;95395.44;4955110;29;20250;-64
2022/02/26 04:48:48;;;;;;;79.47;40.15;;;;;;;6.13;40.91;95384.25;4954437;29;20192;-65
2022/02/26 04:51:15;;;;;;;73.53;38.60;;;;;;;6.06;40.87;95399.13;4954884;29;20623;-64
2022/02/26 04:53:42;;;;;;;81.53;37.63;;;;;;;6.11;40.96;95397.47;4954197;29;20239;-67
2022/02/26 04:56:10;;;;;;;68.00;36.28;;;;;;;6.19;41.01;95401.59;4954379;29;20196;-67
2022/02/26 04:58:37;;;;;;;73.10;38.85;;;;;;;5.98;41.05;95396.81;4954537;29;20210;-67
2022/02/26 05:01:04;;;;;;;67.03;34.28;;;;;;;6.11;40.70;95413.06;4954604;29;20208;-66
2022/02/26 05:03:32;;;;;;;66.07;35.67;;;;;;;6.18;40.83;95423.44;4953979;29;20584;-66
2022/02/26 05:06:00;;;;;;;69.15;36.50;;;;;;;5.89;40.83;95424.88;4954353;29;20739;-66
2022/02/26 05:08:27;;;;;;;69.63;35.22;;;;;;;5.93;41.12;95414.88;4954649;29;20203;-66
2022/02/26 05:10:54;;;;;;;66.57;36.05;;;;;;;5.89;41.58;95424.88;4954648;29;20199;-67
2022/02/26 05:13:21;;;;;;;72.13;36.55;;;;;;;5.93;41.61;95435.69;4954048;29;20188;-67
2022/02/26 05:15:48;;;;;;;70.93;36.00;;;;;;;5.85;41.23;95421.13;4953797;29;20315;-66
2022/02/26 05:18:15;;;;;;;72.68;36.03;;;;;;;5.93;41.32;95435.69;4954330;29;20231;-66
2022/02/26 05:20:42;;;;;;;71.68;35.97;;;;;;;6.12;40.95;95442.50;4953896;29;20623;-68
2022/02/26 05:23:09;;;;;;;69.15;36.17;;;;;;;5.55;41.87;95437.50;4953875;29;20211;-70
2022/02/26 05:25:37;;;;;;;79.38;36.65;;;;;;;4.89;43.49;95456.06;4953256;28;20896;-70
2022/02/26 05:28:05;;;;;;;64.55;34.80;;;;;;;4.72;43.51;95452.38;4955295;28;20206;-70
2022/02/26 05:30:33;;;;;;;68.45;34.92;;;;;;;5.32;42.87;95458.06;4972901;28;20206;-70
2022/02/26 05:33:00;;;;;;;85.70;36.63;;;;;;;5.52;42.26;95436.16;4972513;28;20286;-69
2022/02/26 05:35:29;;;;;;;74.63;37.17;;;;;;;5.76;42.29;95463.19;4972752;28;20187;-69
2022/02/26 05:37:56;;;;;;;75.53;37.10;;;;;;;6.17;41.83;95463.44;4971804;28;20195;-71
2022/02/26 05:40:24;;;;;;;78.85;37.13;;;;;;;6.28;41.54;95465.34;4972728;28;20194;-70
2022/02/26 05:42:51;;;;;;;71.18;37.50;;;;;;;6.07;41.69;95469.16;4972564;28;20200;-72
2022/02/26 05:45:18;;;;;;;81.60;37.05;;;;;;;6.19;41.64;95461.44;4972492;28;20225;-68
2022/02/26 05:47:45;;;;;;;79.85;37.78;;;;;;;6.17;41.57;95473.84;4972653;28;20205;-71
2022/02/26 05:50:13;;;;;;;75.22;38.47;;;;;;;6.21;41.71;95480.25;4973087;28;20635;-72
2022/02/26 05:52:41;;;;;;;89.70;39.67;;;;;;;5.99;41.89;95473.81;4973553;28;20265;-70
2022/02/26 05:55:09;;;;;;;85.53;38.47;;;;;;;6.19;42.17;95482.25;4972440;28;20686;-73
2022/02/26 05:57:36;;;;;;;81.75;36.45;;;;;;;5.70;42.97;95497.81;4972550;28;20210;-72
2022/02/26 06:00:05;;;;;;;73.22;37.78;;;;;;;5.83;42.71;95488.16;4972670;28;20183;-71
2022/02/26 06:02:33;;;;;;;77.10;39.05;;;;;;;5.53;43.87;95491.53;4972499;28;20222;-70
2022/02/26 06:05:00;;;;;;;82.10;40.88;;;;;;;5.92;42.84;95491.28;4972226;28;20758;-71
2022/02/26 06:07:29;;;;;;;81.22;39.88;;;;;;;5.88;42.91;95495.31;4955728;28;20226;-69
2022/02/26 06:09:57;;;;;;;86.25;41.47;;;;;;;5.89;43.09;95491.72;4971939;28;20199;-71
2022/02/26 06:12:24;;;;;;;114.68;57.17;;;;;;;6.10;42.60;95499.16;4972253;28;20203;-68
2022/02/26 06:14:51;;;;;;;134.82;71.38;;;;;;;6.22;42.97;95502.66;4970772;28;20238;-71
2022/02/26 06:17:19;;;;;;;157.93;87.55;;;;;;;6.35;42.58;95489.50;4971923;28;20203;-68
2022/02/26 06:19:46;;;;;;;194.20;103.15;;;;;;;6.48;42.24;95499.81;4972081;28;20203;-72
2022/02/26 06:22:14;;;;;;;211.85;110.32;;;;;;;6.78;41.96;95503.31;4972135;28;20239;-71
2022/02/26 06:24:41;;;;;;;205.82;113.57;;;;;;;6.90;41.38;95479.91;4976079;28;20209;-68
2022/02/26 06:27:07;;;;;;;201.93;111.70;;;;;;;6.80;41.50;95487.47;4973327;28;20988;-71
2022/02/26 06:29:34;;;;;;;196.20;106.18;;;;;;;6.74;42.06;95476.09;4971359;28;20235;-71
2022/02/26 06:32:01;;;;;;;189.38;105.68;;;;;;;7.14;41.81;95487.66;4972199;28;20639;-65
2022/02/26 06:34:28;;;;;;;192.00;104.85;;;;;;;7.24;41.26;95496.78;4971224;28;20262;-67
2022/02/26 06:36:56;;;;;;;179.60;99.53;;;;;;;7.10;41.64;95496.13;4971483;28;20199;-66
2022/02/26 06:39:26;;;;;;;162.57;88.78;;;;;;;7.12;42.00;95500.09;4971565;28;20281;-66
2022/02/26 06:41:52;;;;;;;149.82;79.95;;;;;;;7.22;41.59;95497.00;4965636;28;20196;-65
2022/02/26 06:44:19;;;;;;;137.27;74.93;;;;;;;7.53;41.67;95491.56;4951994;29;20247;-65
2022/02/26 06:46:47;;;;;;;121.65;66.75;;;;;;;7.35;41.59;95494.22;4952421;29;20726;-67
2022/02/26 06:49:15;;;;;;;110.45;57.97;;;;;;;7.74;41.15;95508.50;4951486;28;20188;-66
2022/02/26 06:51:42;;;;;;;92.13;51.53;;;;;;;7.65;41.45;95505.44;4952150;29;20675;-66
2022/02/26 06:54:09;;;;;;;96.18;48.97;;;;;;;7.79;41.13;95500.84;4952563;29;20694;-65
2022/02/26 06:56:36;;;;;;;91.97;50.70;;;;;;;7.88;40.93;95499.50;4951994;29;20204;-66
2022/02/26 06:59:03;;;;;;;102.63;50.20;;;;;;;7.74;41.20;95496.28;4952116;29;20218;-65
2022/02/26 07:01:33;;;;;;;91.55;47.72;;;;;;;7.96;41.06;95501.75;4952628;29;20261;-65
2022/02/26 07:04:01;;;;;;;82.88;47.08;;;;;;;8.06;41.39;95502.81;4955259;29;20227;-65
2022/02/26 07:06:28;;;;;;;86.18;48.05;;;;;;;8.39;41.00;95496.28;4952405;29;20621;-65
2022/02/26 07:08:54;;;;;;;76.72;44.30;;;;;;;8.23;40.73;95501.13;4951519;29;20192;-67
2022/02/26 07:11:21;;;;;;;87.82;46.10;;;;;;;8.38;40.95;95497.31;4951986;29;20204;-64
2022/02/26 07:13:48;;;;;;;79.70;46.03;;;;;;;8.40;40.57;95503.09;4951330;29;20217;-67
2022/02/26 07:16:15;;;;;;;102.35;54.47;;;;;;;8.50;40.79;95509.38;4952251;29;20198;-66
2022/02/26 07:18:42;;;;;;;103.82;57.28;;;;;;;8.80;40.72;95504.78;4951319;29;20202;-65
2022/02/26 07:21:09;;;;;;;99.93;54.33;;;;;;;8.84;40.75;95511.16;4950876;28;20214;-64
2022/02/26 07:23:39;;;;;;;89.13;44.60;;;;;;;8.49;41.33;95502.53;4949989;28;20207;-66
2022/02/26 07:26:06;;;;;;;77.65;43.45;;;;;;;8.62;41.57;95507.53;4950815;28;20258;-65
2022/02/26 07:28:33;;;;;;;95.25;46.40;;;;;;;8.71;40.94;95514.00;4950515;28;20195;-66
2022/02/26 07:31:00;;;;;;;86.80;43.50;;;;;;;8.61;41.33;95505.94;4953457;28;20291;-65
2022/02/26 07:33:28;;;;;;;73.45;38.55;;;;;;;8.65;42.77;95507.06;4950510;28;20247;-66
2022/02/26 07:35:55;;;;;;;66.90;36.78;;;;;;;8.63;42.52;95493.44;4950952;28;20683;-67
2022/02/26 07:38:21;;;;;;;65.05;35.92;;;;;;;8.62;42.01;95499.69;4956574;28;20274;-66
2022/02/26 07:40:48;;;;;;;65.65;36.50;;;;;;;8.67;41.44;95499.81;4970323;28;20278;-65
2022/02/26 07:43:16;;;;;;;77.50;35.97;;;;;;;8.83;41.83;95493.88;4971268;28;20190;-68
2022/02/26 07:45:46;;;;;;;69.50;36.78;;;;;;;8.98;41.36;95502.03;4970393;28;20324;-67
2022/02/26 07:48:13;;;;;;;66.28;37.70;;;;;;;9.10;41.10;95492.34;4971575;28;20562;-66
2022/02/26 07:50:40;;;;;;;150.98;83.90;;;;;;;9.44;41.43;95490.66;4969918;28;20203;-65
2022/02/26 07:53:08;;;;;;;83.50;49.20;;;;;;;9.49;40.94;95492.59;4970324;28;20199;-64
2022/02/26 07:55:37;;;;;;;75.68;41.17;;;;;;;9.64;41.02;95485.00;4969825;28;20241;-62
2022/02/26 07:58:05;;;;;;;68.85;39.03;;;;;;;9.48;40.55;95496.22;4970842;28;20589;-66
2022/02/26 08:00:33;;;;;;;64.85;36.20;;;;;;;9.78;40.32;95497.53;4969037;28;20278;-65
2022/02/26 08:03:02;;;;;;;66.78;37.10;;;;;;;9.93;39.95;95483.91;4953600;28;20686;-65
2022/02/26 08:05:30;;;;;;;76.38;39.17;;;;;;;10.02;40.06;95483.31;4970142;28;20239;-67
2022/02/26 08:07:58;;;;;;;70.15;35.35;;;;;;;10.43;40.26;95483.97;4970906;28;20207;-66
2022/02/26 08:10:26;;;;;;;78.97;45.05;;;;;;;10.59;39.84;95480.53;4970604;28;20199;-66
2022/02/26 08:12:54;;;;;;;97.60;58.60;;;;;;;10.71;39.33;95482.00;4970988;28;20282;-65
2022/02/26 08:15:24;;;;;;;67.50;37.10;;;;;;;10.89;38.84;95479.09;4970459;28;20243;-66
2022/02/26 08:17:51;;;;;;;57.83;35.08;;;;;;;10.98;38.87;95467.16;4971869;28;20199;-64
2022/02/26 08:20:19;;;;;;;75.70;43.83;;;;;;;11.08;38.87;95467.31;4969324;28;20576;-65
2022/02/26 08:22:49;;;;;;;151.70;96.40;;;;;;;11.32;38.73;95474.91;4970006;28;20949;-66
2022/02/26 08:25:16;;;;;;;70.53;39.77;;;;;;;11.80;37.67;95461.81;4969216;28;20446;-65
2022/02/26 08:27:44;;;;;;;69.53;35.17;;;;;;;12.09;38.12;95457.84;4969402;28;20446;-66
2022/02/26 08:30:13;;;;;;;56.60;32.53;;;;;;;11.68;36.74;95472.44;4969803;28;20450;-66
2022/02/26 08:32:42;;;;;;;57.63;31.80;;;;;;;11.48;36.73;95472.22;4969914;28;21094;-65
2022/02/26 08:35:09;;;;;;;49.20;29.00;;;;;;;11.94;36.82;95455.88;4970088;28;20438;-67
2022/02/26 08:37:38;;;;;;;52.17;30.77;;;;;;;12.30;36.88;95453.56;4960110;28;20829;-66
2022/02/26 08:40:07;;;;;;;56.30;30.17;;;;;;;12.42;36.10;95449.69;4950788;29;20499;-64
2022/02/26 08:42:35;;;;;;;52.17;29.87;;;;;;;12.26;36.27;95453.25;4951078;29;20443;-65
2022/02/26 08:45:04;;;;;;;97.00;61.80;;;;;;;11.69;37.14;95447.00;4950816;29;20826;-64
2022/02/26 08:47:32;;;;;;;68.13;43.33;;;;;;;12.79;36.02;95444.41;4950515;29;20446;-65
2022/02/26 08:50:01;;;;;;;51.00;26.97;;;;;;;13.13;36.13;95433.28;4950578;29;20455;-68
2022/02/26 08:52:27;;;;;;;35.90;22.40;;;;;;;13.46;35.02;95433.88;4958344;28;20571;-66
2022/02/26 08:54:54;;;;;;;26.13;17.20;;;;;;;13.61;34.09;95439.19;4969636;28;20446;-65
2022/02/26 08:57:21;;;;;;;24.07;16.67;;;;;;;13.52;34.61;95424.97;4968482;28;20438;-66
2022/02/26 08:59:49;;;;;;;27.97;17.17;;;;;;;11.91;34.95;95439.84;4967694;28;20442;-64
2022/02/26 09:02:16;;;;;;;28.53;17.37;;;;;;;12.53;35.88;95427.69;4968104;28;20437;-64
2022/02/26 09:04:43;;;;;;;29.47;18.00;;;;;;;13.19;34.77;95408.53;4950530;28;20497;-64
2022/02/26 09:07:10;;;;;;;28.03;16.27;;;;;;;13.44;34.07;95428.09;4967966;28;20474;-64
2022/02/26 09:09:37;;;;;;;26.00;16.43;;;;;;;13.89;33.46;95415.78;4968070;28;21205;-67
2022/02/26 09:12:04;;;;;;;26.43;16.23;;;;;;;13.32;32.84;95407.25;4972222;28;20431;-65
2022/02/26 09:14:31;;;;;;;22.70;15.90;;;;;;;13.46;32.74;95420.72;4972930;28;20481;-66
2022/02/26 09:16:58;;;;;;;26.17;15.77;;;;;;;12.64;33.47;95416.19;4973491;28;20446;-66
2022/02/26 09:19:25;;;;;;;28.43;17.27;;;;;;;13.64;33.28;95428.13;4972755;28;20442;-66
2022/02/26 09:21:53;;;;;;;30.40;17.83;;;;;;;14.38;32.84;95410.78;4973202;28;20438;-64
2022/02/26 09:24:20;;;;;;;28.80;16.43;;;;;;;14.75;31.69;95413.88;4973129;28;20471;-66
2022/02/26 09:26:46;;;;;;;26.93;17.40;;;;;;;14.84;31.76;95385.88;4973309;28;20496;-67
2022/02/26 09:29:14;;;;;;;24.40;17.27;;;;;;;15.20;31.59;95408.41;4972704;28;20992;-64
2022/02/26 09:31:42;;;;;;;23.00;16.83;;;;;;;15.39;30.40;95407.78;4973377;28;20450;-66
2022/02/26 09:34:09;;;;;;;29.50;17.50;;;;;;;15.51;31.21;95390.56;4972769;28;20450;-66
2022/02/26 09:36:36;;;;;;;29.37;17.47;;;;;;;15.74;30.57;95405.78;4973047;28;20435;-66
2022/02/26 09:39:06;;;;;;;31.40;17.57;;;;;;;15.95;30.31;95407.19;4972935;28;20453;-65
2022/02/26 09:41:33;;;;;;;26.93;17.47;;;;;;;16.24;29.76;95400.06;4972813;28;20455;-64
2022/02/26 09:44:00;;;;;;;29.53;16.77;;;;;;;16.13;29.61;95403.06;4972787;28;20450;-65
2022/02/26 09:46:27;;;;;;;33.63;19.03;;;;;;;15.98;29.17;95384.72;4972608;28;20500;-65
2022/02/26 09:48:54;;;;;;;27.77;20.07;;;;;;;16.23;30.00;95413.59;4972680;28;20442;-65
2022/02/26 09:51:22;;;;;;;28.73;20.47;;;;;;;16.39;29.39;95404.44;4972728;28;20452;-66
2022/02/26 09:53:51;;;;;;;31.93;20.47;;;;;;;16.52;29.49;95398.53;4972565;28;20442;-66
2022/02/26 09:56:24;;;;;;;26.13;19.47;;;;;;;16.51;29.98;95396.97;4973090;28;20899;-64
2022/02/26 09:58:52;;;;;;;20.87;15.03;;;;;;;16.45;29.16;95395.41;4975744;28;20878;-64
2022/02/26 10:01:21;;;;;;;24.20;16.17;;;;;;;16.81;28.85;95383.41;4974060;28;20442;-67
2022/02/26 10:03:49;;;;;;;26.53;16.70;;;;;;;17.24;27.71;95392.94;4972423;28;20508;-65
2022/02/26 10:06:19;;;;;;;23.67;17.57;;;;;;;16.90;28.74;95387.00;4973236;28;20486;-66
2022/02/26 10:08:55;;;;;;;31.97;17.93;;;;;;;17.35;27.35;95384.88;4973433;28;21005;-66
2022/02/26 10:11:26;;;;;;;27.03;17.60;;;;;;;17.38;27.07;95386.94;4973037;28;20446;-64
2022/02/26 10:14:11;;;;;;;23.27;16.67;;;;;;;17.46;26.53;95379.16;4971995;28;20478;-65
2022/02/26 10:16:47;;;;;;;29.87;17.70;;;;;;;16.88;26.76;95356.56;4972597;28;20438;-67
2022/02/26 10:19:23;;;;;;;27.57;17.17;;;;;;;17.49;27.07;95372.50;4972071;28;20449;-65
2022/02/26 10:21:51;;;;;;;26.43;17.60;;;;;;;17.46;26.99;95373.06;4972493;28;20457;-66
2022/02/26 10:24:19;;;;;;;23.73;16.93;;;;;;;17.60;26.75;95366.00;4970900;28;20556;-66
2022/02/26 10:26:51;;;;;;;31.10;16.90;;;;;;;17.32;26.72;95362.38;4971863;28;20563;-66
2022/02/26 10:29:22;;;;;;;25.37;16.90;;;;;;;17.49;25.70;95362.69;4971912;28;20472;-64
2022/02/26 10:31:54;;;;;;;27.87;17.83;;;;;;;17.59;26.19;95367.84;4971959;28;20549;-67
2022/02/26 10:34:29;;;;;;;28.37;16.60;;;;;;;17.43;26.15;95363.00;4971358;28;20542;-65
2022/02/26 10:36:57;;;;;;;20.77;16.30;;;;;;;17.57;26.28;95353.31;4972271;28;20497;-66
2022/02/26 10:39:36;;;;;;;31.30;17.03;;;;;;;17.82;27.02;95352.94;4970722;28;20446;-65
2022/02/26 10:42:06;;;;;;;29.97;16.60;;;;;;;17.91;26.18;95353.84;4972416;28;20442;-66
2022/02/26 10:44:34;;;;;;;28.27;16.80;;;;;;;17.97;26.19;95352.69;4971297;28;21566;-64
2022/02/26 10:47:13;;;;;;;25.63;16.63;;;;;;;18.21;26.20;95338.22;4971451;28;20482;-65
2022/02/26 10:49:44;;;;;;;20.77;14.30;;;;;;;17.86;25.97;95345.97;4971800;28;20435;-65
2022/02/26 10:52:13;;;;;;;21.13;13.30;;;;;;;17.33;25.20;95334.81;4972058;28;20866;-67
2022/02/26 10:54:41;;;;;;;19.73;13.40;;;;;;;17.74;25.54;95337.66;4971415;28;20442;-66
2022/02/26 10:57:11;;;;;;;20.13;14.27;;;;;;;18.03;25.76;95335.59;4971986;28;20450;-65
2022/02/26 10:59:43;;;;;;;26.00;13.67;;;;;;;17.69;26.53;95335.09;4971028;28;20477;-66
2022/02/26 11:02:25;;;;;;;26.30;14.40;;;;;;;18.14;25.03;95310.50;4971734;28;20449;-66
2022/02/26 11:04:54;;;;;;;20.43;13.87;;;;;;;18.33;25.87;95327.13;4971226;28;20522;-65
2022/02/26 11:07:22;;;;;;;23.27;14.10;;;;;;;18.44;25.16;95328.56;4971319;28;21071;-65
2022/02/26 11:09:54;;;;;;;17.80;11.37;;;;;;;18.50;25.67;95316.78;4970624;28;20505;-65
2022/02/26 11:12:24;;;;;;;17.73;11.27;;;;;;;18.15;26.27;95328.00;4971393;28;20907;-63
2022/02/26 11:14:58;;;;;;;14.30;10.90;;;;;;;18.18;25.21;95327.41;4970646;28;20853;-64
2022/02/26 11:17:28;;;;;;;18.43;11.80;;;;;;;18.65;24.96;95311.16;4971114;28;20825;-64
2022/02/26 11:20:03;;;;;;;22.60;16.07;;;;;;;18.28;25.55;95306.00;4970660;28;20466;-66
2022/02/26 11:22:31;;;;;;;24.63;13.57;;;;;;;18.39;25.96;95314.56;4970427;28;20438;-66